createdAt,value
2018-05-25T00:01:00.001Z,15.29
2018-05-25T00:02:00.244Z,15.29
2018-05-25T00:03:00.488Z,15.32
2018-05-25T00:04:00.730Z,15.27
2018-05-25T00:05:00.973Z,15.21
2018-05-25T00:06:01.218Z,15.31
2018-05-25T00:07:01.461Z,15.32
2018-05-25T00:08:01.709Z,15.34
2018-05-25T00:09:01.948Z,15.35
2018-05-25T00:10:02.191Z,15.38
2018-05-25T00:11:02.435Z,15.43
2018-05-25T00:12:02.680Z,15.35
2018-05-25T00:13:02.924Z,15.46
2018-05-25T00:14:03.168Z,15.36
2018-05-25T00:15:03.410Z,15.41
2018-05-25T00:16:03.656Z,15.43
2018-05-25T00:17:03.895Z,15.39
2018-05-25T00:18:04.141Z,15.38
2018-05-25T00:19:04.384Z,15.39
2018-05-25T00:20:04.623Z,15.39
2018-05-25T00:21:04.869Z,15.41
2018-05-25T00:22:05.109Z,15.46
2018-05-25T00:23:05.351Z,15.41
2018-05-25T00:24:05.593Z,15.38
2018-05-25T00:25:05.837Z,15.39
2018-05-25T00:26:06.084Z,15.39
2018-05-25T00:27:06.324Z,15.38
2018-05-25T00:28:06.566Z,15.44
2018-05-25T00:29:06.812Z,15.39
2018-05-25T00:30:07.054Z,15.39
2018-05-25T00:31:07.296Z,15.43
2018-05-25T00:32:07.541Z,15.46
2018-05-25T00:33:07.786Z,15.41
2018-05-25T00:34:08.026Z,15.41
2018-05-25T00:35:08.269Z,15.43
2018-05-25T00:36:08.511Z,15.38
2018-05-25T00:37:08.759Z,15.39
2018-05-25T00:38:08.997Z,15.39
2018-05-25T00:39:09.238Z,15.44
2018-05-25T00:40:09.482Z,15.41
2018-05-25T00:41:09.725Z,15.35
2018-05-25T00:42:09.970Z,15.31
2018-05-25T00:43:10.211Z,15.43
2018-05-25T00:44:10.454Z,15.39
2018-05-25T00:45:10.697Z,15.41
2018-05-25T00:46:10.938Z,15.35
2018-05-25T00:47:11.183Z,15.34
2018-05-25T00:48:11.427Z,15.41
2018-05-25T00:49:11.669Z,15.41
2018-05-25T00:50:11.913Z,15.38
2018-05-25T00:51:12.156Z,15.36
2018-05-25T00:52:12.401Z,15.43
2018-05-25T00:53:12.645Z,15.36
2018-05-25T00:54:12.887Z,15.32
2018-05-25T00:55:13.129Z,15.36
2018-05-25T00:56:13.373Z,15.38
2018-05-25T00:57:13.616Z,15.36
2018-05-25T00:58:13.859Z,15.32
2018-05-25T00:59:14.102Z,15.34
2018-05-25T01:00:14.345Z,15.25
2018-05-25T01:01:14.588Z,15.34
2018-05-25T01:02:14.833Z,15.35
2018-05-25T01:03:15.075Z,15.31
2018-05-25T01:04:15.323Z,15.25
2018-05-25T01:05:15.560Z,15.25
2018-05-25T01:06:15.805Z,15.25
2018-05-25T01:07:16.048Z,15.27
2018-05-25T01:08:16.294Z,15.25
2018-05-25T01:09:16.537Z,15.27
2018-05-25T01:10:16.784Z,15.27
2018-05-25T01:11:17.026Z,15.29
2018-05-25T01:12:17.271Z,15.25
2018-05-25T01:13:17.513Z,15.29
2018-05-25T01:14:17.756Z,15.29
2018-05-25T01:15:18.001Z,15.25
2018-05-25T01:16:18.242Z,15.32
2018-05-25T01:17:18.489Z,15.27
2018-05-25T01:18:18.730Z,15.31
2018-05-25T01:19:18.973Z,15.28
2018-05-25T01:20:19.217Z,15.31
2018-05-25T01:21:19.460Z,15.32
2018-05-25T01:22:19.702Z,15.31
2018-05-25T01:23:19.945Z,15.25
2018-05-25T01:24:20.188Z,15.20
2018-05-25T01:25:20.430Z,15.34
2018-05-25T01:26:20.675Z,15.35
2018-05-25T01:27:20.921Z,15.31
2018-05-25T01:28:21.163Z,15.23
2018-05-25T01:29:21.406Z,15.23
2018-05-25T01:30:21.649Z,15.27
2018-05-25T01:31:21.892Z,15.29
2018-05-25T01:32:22.135Z,15.28
2018-05-25T01:33:22.378Z,15.28
2018-05-25T01:34:22.622Z,15.27
2018-05-25T01:35:22.865Z,15.21
2018-05-25T01:36:23.109Z,15.20
2018-05-25T01:37:23.353Z,15.19
2018-05-25T01:38:23.597Z,15.32
2018-05-25T01:39:23.840Z,15.20
2018-05-25T01:40:24.085Z,15.17
2018-05-25T01:41:24.328Z,15.19
2018-05-25T01:42:24.571Z,15.19
2018-05-25T01:43:24.814Z,15.16
2018-05-25T01:44:25.058Z,15.21
2018-05-25T01:45:25.300Z,15.21
2018-05-25T01:46:25.543Z,15.17
2018-05-25T01:47:25.789Z,15.20
2018-05-25T01:48:26.031Z,15.19
2018-05-25T01:49:26.280Z,15.19
2018-05-25T01:50:26.517Z,15.21
2018-05-25T01:51:26.761Z,15.17
2018-05-25T01:52:27.009Z,15.19
2018-05-25T01:53:27.245Z,15.19
2018-05-25T01:54:27.491Z,15.19
2018-05-25T01:55:27.734Z,15.16
2018-05-25T01:56:27.977Z,15.20
2018-05-25T01:57:28.219Z,15.13
2018-05-25T01:58:28.462Z,15.16
2018-05-25T01:59:28.705Z,15.19
2018-05-25T02:00:28.948Z,15.16
2018-05-25T02:01:29.192Z,15.11
2018-05-25T02:02:29.435Z,15.11
2018-05-25T02:03:29.678Z,15.13
2018-05-25T02:04:29.922Z,15.14
2018-05-25T02:05:30.164Z,15.19
2018-05-25T02:06:30.405Z,15.14
2018-05-25T02:07:30.650Z,15.13
2018-05-25T02:08:30.893Z,15.10
2018-05-25T02:09:31.135Z,15.16
2018-05-25T02:10:31.379Z,15.20
2018-05-25T02:11:31.619Z,15.17
2018-05-25T02:12:31.862Z,15.13
2018-05-25T02:13:32.105Z,15.17
2018-05-25T02:14:32.357Z,15.19
2018-05-25T02:15:32.594Z,15.14
2018-05-25T02:16:32.837Z,15.14
2018-05-25T02:17:33.081Z,15.14
2018-05-25T02:18:33.323Z,15.11
2018-05-25T02:19:33.567Z,15.07
2018-05-25T02:20:33.810Z,15.13
2018-05-25T02:21:34.053Z,15.01
2018-05-25T02:22:34.296Z,15.11
2018-05-25T02:23:34.538Z,15.07
2018-05-25T02:24:34.781Z,15.10
2018-05-25T02:25:35.022Z,15.11
2018-05-25T02:26:35.267Z,15.10
2018-05-25T02:27:35.511Z,15.01
2018-05-25T02:28:35.753Z,15.06
2018-05-25T02:29:35.997Z,15.07
2018-05-25T02:30:36.240Z,15.11
2018-05-25T02:31:36.484Z,15.13
2018-05-25T02:32:36.731Z,15.10
2018-05-25T02:33:36.971Z,15.10
2018-05-25T02:34:37.215Z,15.10
2018-05-25T02:35:37.458Z,15.14
2018-05-25T02:36:37.699Z,15.16
2018-05-25T02:37:37.944Z,15.21
2018-05-25T02:38:38.214Z,15.16
2018-05-25T02:39:38.429Z,15.21
2018-05-25T02:40:38.672Z,15.13
2018-05-25T02:41:38.914Z,15.17
2018-05-25T02:42:39.170Z,15.16
2018-05-25T02:43:39.402Z,15.19
2018-05-25T02:44:39.646Z,15.19
2018-05-25T02:45:39.892Z,15.16
2018-05-25T02:46:40.131Z,15.19
2018-05-25T02:47:40.373Z,15.19
2018-05-25T02:48:40.617Z,15.16
2018-05-25T02:49:40.859Z,15.14
2018-05-25T02:50:41.104Z,15.14
2018-05-25T02:51:41.349Z,15.11
2018-05-25T02:52:41.592Z,15.09
2018-05-25T02:53:41.839Z,15.14
2018-05-25T02:54:42.081Z,15.17
2018-05-25T02:55:42.324Z,15.25
2018-05-25T02:56:42.565Z,15.23
2018-05-25T02:57:42.810Z,15.13
2018-05-25T02:58:43.052Z,15.19
2018-05-25T02:59:43.291Z,15.11
2018-05-25T03:00:43.540Z,15.19
2018-05-25T03:01:43.784Z,15.06
2018-05-25T03:02:44.026Z,15.20
2018-05-25T03:03:44.268Z,15.19
2018-05-25T03:04:44.511Z,15.17
2018-05-25T03:05:44.754Z,15.11
2018-05-25T03:06:45.023Z,15.14
2018-05-25T03:07:45.246Z,15.21
2018-05-25T03:08:45.484Z,15.13
2018-05-25T03:09:45.728Z,15.14
2018-05-25T03:10:45.972Z,15.17
2018-05-25T03:11:46.215Z,15.16
2018-05-25T03:12:46.460Z,15.13
2018-05-25T03:13:46.702Z,15.10
2018-05-25T03:14:46.943Z,15.11
2018-05-25T03:15:47.188Z,15.03
2018-05-25T03:16:47.431Z,14.98
2018-05-25T03:17:47.673Z,14.96
2018-05-25T03:18:47.918Z,14.99
2018-05-25T03:19:48.162Z,14.88
2018-05-25T03:20:48.406Z,14.92
2018-05-25T03:21:48.649Z,14.89
2018-05-25T03:22:48.891Z,14.89
2018-05-25T03:23:49.137Z,14.92
2018-05-25T03:24:49.381Z,14.78
2018-05-25T03:25:49.624Z,14.77
2018-05-25T03:26:49.880Z,14.78
2018-05-25T03:27:50.114Z,14.80
2018-05-25T03:28:50.359Z,14.81
2018-05-25T03:29:50.602Z,14.78
2018-05-25T03:30:50.846Z,14.73
2018-05-25T03:31:51.089Z,14.70
2018-05-25T03:32:51.331Z,14.70
2018-05-25T03:33:51.576Z,14.61
2018-05-25T03:34:51.821Z,14.68
2018-05-25T03:35:52.068Z,14.64
2018-05-25T03:36:52.312Z,14.65
2018-05-25T03:37:52.556Z,14.62
2018-05-25T03:38:52.799Z,14.68
2018-05-25T03:39:53.044Z,14.64
2018-05-25T03:40:53.287Z,14.58
2018-05-25T03:41:53.529Z,14.69
2018-05-25T03:42:53.774Z,14.69
2018-05-25T03:43:54.017Z,14.72
2018-05-25T03:44:54.263Z,14.72
2018-05-25T03:45:54.503Z,14.69
2018-05-25T03:46:54.748Z,14.69
2018-05-25T03:47:54.992Z,14.64
2018-05-25T03:48:55.234Z,14.65
2018-05-25T03:49:55.477Z,14.62
2018-05-25T03:50:55.721Z,14.69
2018-05-25T03:51:55.963Z,14.68
2018-05-25T03:52:56.205Z,14.70
2018-05-25T03:53:56.448Z,14.75
2018-05-25T03:54:56.691Z,14.72
2018-05-25T03:55:56.936Z,14.81
2018-05-25T03:56:57.180Z,14.73
2018-05-25T03:57:57.425Z,14.73
2018-05-25T03:58:57.667Z,14.78
2018-05-25T03:59:57.910Z,14.75
2018-05-25T04:00:58.154Z,14.78
2018-05-25T04:01:58.397Z,14.83
2018-05-25T04:02:58.643Z,14.89
2018-05-25T04:03:58.886Z,14.94
2018-05-25T04:04:59.115Z,14.92
2018-05-25T04:05:59.359Z,14.91
2018-05-25T04:06:59.603Z,14.89
2018-05-25T04:07:59.847Z,14.91
2018-05-25T04:09:00.092Z,14.86
2018-05-25T04:10:00.333Z,14.92
2018-05-25T04:11:00.577Z,14.98
2018-05-25T04:12:00.823Z,14.89
2018-05-25T04:13:01.064Z,14.94
2018-05-25T04:14:01.307Z,14.89
2018-05-25T04:15:01.551Z,14.86
2018-05-25T04:16:01.798Z,14.95
2018-05-25T04:17:02.042Z,14.95
2018-05-25T04:18:02.285Z,15.07
2018-05-25T04:19:02.532Z,15.01
2018-05-25T04:20:02.779Z,15.03
2018-05-25T04:21:03.019Z,15.06
2018-05-25T04:22:03.263Z,15.02
2018-05-25T04:23:03.506Z,15.09
2018-05-25T04:24:03.750Z,15.10
2018-05-25T04:25:03.993Z,15.14
2018-05-25T04:26:04.257Z,15.10
2018-05-25T04:27:04.483Z,15.11
2018-05-25T04:28:04.729Z,15.21
2018-05-25T04:29:04.972Z,15.19
2018-05-25T04:30:05.214Z,15.17
2018-05-25T04:31:05.463Z,15.10
2018-05-25T04:32:05.704Z,15.14
2018-05-25T04:33:05.948Z,15.09
2018-05-25T04:34:06.195Z,15.14
2018-05-25T04:35:06.438Z,15.11
2018-05-25T04:36:06.674Z,15.25
2018-05-25T04:37:06.938Z,15.09
2018-05-25T04:38:07.181Z,15.16
2018-05-25T04:39:07.424Z,15.17
2018-05-25T04:40:07.669Z,15.13
2018-05-25T04:41:07.912Z,15.23
2018-05-25T04:42:08.154Z,15.17
2018-05-25T04:43:08.400Z,15.28
2018-05-25T04:44:08.643Z,15.21
2018-05-25T04:45:08.886Z,15.31
2018-05-25T04:46:09.135Z,15.25
2018-05-25T04:47:09.375Z,15.32
2018-05-25T04:48:09.619Z,15.31
2018-05-25T04:49:09.862Z,15.39
2018-05-25T04:50:10.106Z,15.41
2018-05-25T04:51:10.349Z,15.36
2018-05-25T04:52:10.593Z,15.35
2018-05-25T04:53:10.838Z,15.38
2018-05-25T04:54:11.081Z,15.39
2018-05-25T04:55:11.327Z,15.35
2018-05-25T04:56:11.571Z,15.44
2018-05-25T04:57:11.814Z,15.51
2018-05-25T04:58:12.059Z,15.46
2018-05-25T04:59:12.304Z,15.49
2018-05-25T05:00:12.545Z,15.62
2018-05-25T05:01:12.792Z,15.62
2018-05-25T05:02:13.037Z,15.71
2018-05-25T05:03:13.280Z,15.68
2018-05-25T05:04:13.524Z,15.76
2018-05-25T05:05:13.773Z,15.78
2018-05-25T05:06:14.013Z,15.84
2018-05-25T05:07:14.255Z,15.78
2018-05-25T05:08:14.500Z,15.87
2018-05-25T05:09:14.744Z,15.92
2018-05-25T05:10:14.990Z,15.93
2018-05-25T05:11:15.239Z,15.97
2018-05-25T05:12:15.477Z,15.90
2018-05-25T05:13:15.722Z,15.93
2018-05-25T05:14:15.968Z,16.01
2018-05-25T05:15:16.210Z,16.15
2018-05-25T05:16:16.454Z,16.21
2018-05-25T05:17:16.697Z,16.15
2018-05-25T05:18:16.943Z,16.09
2018-05-25T05:19:17.187Z,16.08
2018-05-25T05:20:17.429Z,16.14
2018-05-25T05:21:17.675Z,16.09
2018-05-25T05:22:17.920Z,16.25
2018-05-25T05:23:18.164Z,16.23
2018-05-25T05:24:18.409Z,16.24
2018-05-25T05:25:18.653Z,16.33
2018-05-25T05:26:18.901Z,16.38
2018-05-25T05:27:19.143Z,16.42
2018-05-25T05:28:19.388Z,16.52
2018-05-25T05:29:19.632Z,16.61
2018-05-25T05:30:19.877Z,16.66
2018-05-25T05:31:20.124Z,16.73
2018-05-25T05:32:20.365Z,16.71
2018-05-25T05:33:20.609Z,16.83
2018-05-25T05:34:20.853Z,16.85
2018-05-25T05:35:21.102Z,16.96
2018-05-25T05:36:21.344Z,16.83
2018-05-25T05:37:21.588Z,16.93
2018-05-25T05:38:21.832Z,16.89
2018-05-25T05:39:22.078Z,16.93
2018-05-25T05:40:22.323Z,17.04
2018-05-25T05:41:22.566Z,17.01
2018-05-25T05:42:22.811Z,17.15
2018-05-25T05:43:23.056Z,17.21
2018-05-25T05:44:23.301Z,17.25
2018-05-25T05:45:23.546Z,17.25
2018-05-25T05:46:23.792Z,17.26
2018-05-25T05:47:24.037Z,17.25
2018-05-25T05:48:24.283Z,17.23
2018-05-25T05:49:24.530Z,17.25
2018-05-25T05:50:24.771Z,17.30
2018-05-25T05:51:25.018Z,17.37
2018-05-25T05:52:25.265Z,17.43
2018-05-25T05:53:25.514Z,17.56
2018-05-25T05:54:25.755Z,17.58
2018-05-25T05:55:26.002Z,17.64
2018-05-25T05:56:26.247Z,17.78
2018-05-25T05:57:26.492Z,17.78
2018-05-25T05:58:26.738Z,17.79
2018-05-25T05:59:26.981Z,17.87
2018-05-25T06:00:27.229Z,17.86
2018-05-25T06:01:27.475Z,18.00
2018-05-25T06:02:27.720Z,18.08
2018-05-25T06:03:27.967Z,18.17
2018-05-25T06:04:28.272Z,18.32
2018-05-25T06:05:28.459Z,18.29
2018-05-25T06:06:28.704Z,18.30
2018-05-25T06:07:28.952Z,18.30
2018-05-25T06:08:29.197Z,18.33
2018-05-25T06:09:29.444Z,18.52
2018-05-25T06:10:29.689Z,18.65
2018-05-25T06:11:29.934Z,18.62
2018-05-25T06:12:30.184Z,18.82
2018-05-25T06:13:30.431Z,18.84
2018-05-25T06:14:30.675Z,18.91
2018-05-25T06:15:30.922Z,19.00
2018-05-25T06:16:31.169Z,19.00
2018-05-25T06:17:31.415Z,19.13
2018-05-25T06:18:31.660Z,19.23
2018-05-25T06:19:31.907Z,19.31
2018-05-25T06:20:32.150Z,19.37
2018-05-25T06:21:32.401Z,19.29
2018-05-25T06:22:32.660Z,19.29
2018-05-25T06:23:32.891Z,19.19
2018-05-25T06:24:33.142Z,19.23
2018-05-25T06:25:33.389Z,19.19
2018-05-25T06:26:33.640Z,19.18
2018-05-25T06:27:33.883Z,19.23
2018-05-25T06:28:34.131Z,19.18
2018-05-25T06:29:34.381Z,19.25
2018-05-25T06:30:34.622Z,19.37
2018-05-25T06:31:34.869Z,19.58
2018-05-25T06:32:35.117Z,19.58
2018-05-25T06:33:35.364Z,19.59
2018-05-25T06:34:35.611Z,19.69
2018-05-25T06:35:35.855Z,19.83
2018-05-25T06:36:36.103Z,19.84
2018-05-25T06:37:36.351Z,19.84
2018-05-25T06:38:36.597Z,19.91
2018-05-25T06:39:36.848Z,19.91
2018-05-25T06:40:37.091Z,20.06
2018-05-25T06:41:37.338Z,19.98
2018-05-25T06:42:37.590Z,19.80
2018-05-25T06:43:37.836Z,19.84
2018-05-25T06:44:38.084Z,19.81
2018-05-25T06:45:38.328Z,19.96
2018-05-25T06:46:38.576Z,20.11
2018-05-25T06:47:38.822Z,20.32
2018-05-25T06:48:39.070Z,20.48
2018-05-25T06:49:39.316Z,20.54
2018-05-25T06:50:39.575Z,20.84
2018-05-25T06:51:39.812Z,20.70
2018-05-25T06:52:40.059Z,20.51
2018-05-25T06:53:40.308Z,20.48
2018-05-25T06:54:40.553Z,20.26
2018-05-25T06:55:40.801Z,20.28
2018-05-25T06:56:41.049Z,20.17
2018-05-25T06:57:41.296Z,19.95
2018-05-25T06:58:41.544Z,19.78
2018-05-25T06:59:41.796Z,19.78
2018-05-25T07:00:42.041Z,19.84
2018-05-25T07:01:42.291Z,19.44
2018-05-25T07:02:42.536Z,19.32
2018-05-25T07:03:42.784Z,19.36
2018-05-25T07:04:43.031Z,19.41
2018-05-25T07:05:43.278Z,19.41
2018-05-25T07:06:43.530Z,19.63
2018-05-25T07:07:43.773Z,19.83
2018-05-25T07:08:44.021Z,19.94
2018-05-25T07:09:44.266Z,20.11
2018-05-25T07:10:44.515Z,20.08
2018-05-25T07:11:44.761Z,20.18
2018-05-25T07:12:45.009Z,20.24
2018-05-25T07:13:45.257Z,20.17
2018-05-25T07:14:45.503Z,20.32
2018-05-25T07:15:45.752Z,20.29
2018-05-25T07:16:46.001Z,20.51
2018-05-25T07:17:46.263Z,20.47
2018-05-25T07:18:46.494Z,20.73
2018-05-25T07:19:46.746Z,20.82
2018-05-25T07:20:46.994Z,20.85
2018-05-25T07:21:47.243Z,20.88
2018-05-25T07:22:47.490Z,20.95
2018-05-25T07:23:47.738Z,20.85
2018-05-25T07:24:47.989Z,20.95
2018-05-25T07:25:48.237Z,21.17
2018-05-25T07:26:48.500Z,21.27
2018-05-25T07:27:48.733Z,21.21
2018-05-25T07:28:48.976Z,21.28
2018-05-25T07:29:49.241Z,21.22
2018-05-25T07:30:49.491Z,21.46
2018-05-25T07:31:49.737Z,21.22
2018-05-25T07:32:49.987Z,21.32
2018-05-25T07:33:50.236Z,21.27
2018-05-25T07:34:50.488Z,21.31
2018-05-25T07:35:50.735Z,21.53
2018-05-25T07:36:50.984Z,21.77
2018-05-25T07:37:51.232Z,21.86
2018-05-25T07:38:51.480Z,22.22
2018-05-25T07:39:51.730Z,23.02
2018-05-25T07:40:51.978Z,23.79
2018-05-25T07:41:52.224Z,23.16
2018-05-25T07:42:52.474Z,23.32
2018-05-25T07:43:52.722Z,23.93
2018-05-25T07:44:52.971Z,24.45
2018-05-25T07:46:00.849Z,24.98
2018-05-25T07:46:53.526Z,25.15
2018-05-25T07:47:53.776Z,25.20
2018-05-25T07:48:54.024Z,25.38
2018-05-25T07:49:54.272Z,25.35
2018-05-25T07:50:54.522Z,25.42
2018-05-25T07:51:54.771Z,25.35
2018-05-25T07:52:55.021Z,25.32
2018-05-25T07:53:55.274Z,25.61
2018-05-25T07:54:55.523Z,26.32
2018-05-25T07:55:55.775Z,26.48
2018-05-25T07:56:56.024Z,26.82
2018-05-25T07:57:56.274Z,26.26
2018-05-25T07:58:56.522Z,25.83
2018-05-25T07:59:56.771Z,25.15
2018-05-25T08:00:57.021Z,24.80
2018-05-25T08:01:57.271Z,24.65
2018-05-25T08:02:57.523Z,24.09
2018-05-25T08:03:57.772Z,23.10
2018-05-25T08:04:58.022Z,22.72
2018-05-25T08:05:58.274Z,22.20
2018-05-25T08:06:58.527Z,22.21
2018-05-25T08:07:58.776Z,22.33
2018-05-25T08:08:59.024Z,22.75
2018-05-25T08:09:59.273Z,22.90
2018-05-25T08:10:59.531Z,23.63
2018-05-25T08:11:59.831Z,24.73
2018-05-25T08:13:00.028Z,24.99
2018-05-25T08:14:00.277Z,24.80
2018-05-25T08:15:00.529Z,25.23
2018-05-25T08:16:00.780Z,25.33
2018-05-25T08:17:01.027Z,24.90
2018-05-25T08:18:01.277Z,24.65
2018-05-25T08:19:01.524Z,24.31
2018-05-25T08:20:01.774Z,24.39
2018-05-25T08:21:02.032Z,24.83
2018-05-25T08:22:02.350Z,25.15
2018-05-25T08:23:02.533Z,25.02
2018-05-25T08:24:02.783Z,24.95
2018-05-25T08:25:03.033Z,24.76
2018-05-25T08:26:03.284Z,24.69
2018-05-25T08:27:03.537Z,23.88
2018-05-25T08:28:03.788Z,24.03
2018-05-25T08:29:04.039Z,23.68
2018-05-25T08:30:04.290Z,23.25
2018-05-25T08:31:04.540Z,22.24
2018-05-25T08:32:04.795Z,22.40
2018-05-25T08:33:05.048Z,22.42
2018-05-25T08:34:05.305Z,22.49
2018-05-25T08:35:05.546Z,23.22
2018-05-25T08:36:05.795Z,23.42
2018-05-25T08:37:06.047Z,23.69
2018-05-25T08:38:06.297Z,23.17
2018-05-25T08:39:06.547Z,22.22
2018-05-25T08:40:06.797Z,22.09
2018-05-25T08:41:07.047Z,22.40
2018-05-25T08:42:07.298Z,22.58
2018-05-25T08:43:07.551Z,22.60
2018-05-25T08:44:07.801Z,22.60
2018-05-25T08:45:08.049Z,22.70
2018-05-25T08:46:08.299Z,22.83
2018-05-25T08:47:08.548Z,22.94
2018-05-25T08:48:08.798Z,22.92
2018-05-25T08:49:09.049Z,22.79
2018-05-25T08:50:09.299Z,22.91
2018-05-25T08:51:09.549Z,23.05
2018-05-25T08:52:09.800Z,22.94
2018-05-25T08:53:10.052Z,22.79
2018-05-25T08:54:10.300Z,22.79
2018-05-25T08:55:10.561Z,22.83
2018-05-25T08:56:10.801Z,22.76
2018-05-25T08:57:11.050Z,22.92
2018-05-25T08:58:11.506Z,23.19
2018-05-25T08:59:11.550Z,23.75
2018-05-25T09:00:11.798Z,25.23
2018-05-25T09:01:12.062Z,25.92
2018-05-25T09:02:12.298Z,26.82
2018-05-25T09:03:12.548Z,27.31
2018-05-25T09:04:12.801Z,28.07
2018-05-25T09:05:13.052Z,27.60
2018-05-25T09:06:13.316Z,27.78
2018-05-25T09:07:13.567Z,28.00
2018-05-25T09:08:13.819Z,28.68
2018-05-25T09:09:14.071Z,28.73
2018-05-25T09:10:14.323Z,28.27
2018-05-25T09:11:14.576Z,27.03
2018-05-25T09:12:14.827Z,28.37
2018-05-25T09:13:15.079Z,29.60
2018-05-25T09:14:15.334Z,30.01
2018-05-25T09:15:15.586Z,30.11
2018-05-25T09:16:15.839Z,30.60
2018-05-25T09:17:16.092Z,31.16
2018-05-25T09:18:16.346Z,29.30
2018-05-25T09:19:16.603Z,29.86
2018-05-25T09:20:16.854Z,28.06
2018-05-25T09:21:17.109Z,28.51
2018-05-25T09:22:17.364Z,27.32
2018-05-25T09:23:17.622Z,25.75
2018-05-25T09:24:17.876Z,25.67
2018-05-25T09:25:18.162Z,25.73
2018-05-25T09:26:18.419Z,25.20
2018-05-25T09:27:18.675Z,25.03
2018-05-25T09:28:18.932Z,24.73
2018-05-25T09:29:19.185Z,25.40
2018-05-25T09:30:19.440Z,25.97
2018-05-25T09:31:19.695Z,26.12
2018-05-25T09:32:19.948Z,27.18
2018-05-25T09:33:20.202Z,28.14
2018-05-25T09:34:20.457Z,27.47
2018-05-25T09:35:20.711Z,27.70
2018-05-25T09:36:20.997Z,28.19
2018-05-25T09:37:21.218Z,28.36
2018-05-25T09:38:21.472Z,28.27
2018-05-25T09:39:21.729Z,29.24
2018-05-25T09:40:21.986Z,29.80
2018-05-25T09:41:22.236Z,29.65
2018-05-25T09:42:22.490Z,29.80
2018-05-25T09:43:22.754Z,29.46
2018-05-25T09:44:23.001Z,29.57
2018-05-25T09:45:23.258Z,29.12
2018-05-25T09:46:23.516Z,28.44
2018-05-25T09:47:23.764Z,28.02
2018-05-25T09:48:24.020Z,27.69
2018-05-25T09:49:24.272Z,27.07
2018-05-25T09:50:24.529Z,26.54
2018-05-25T09:51:24.783Z,25.36
2018-05-25T09:52:25.037Z,24.91
2018-05-25T09:53:25.296Z,24.83
2018-05-25T09:54:33.183Z,26.57
2018-05-25T09:55:25.864Z,26.85
2018-05-25T09:56:26.117Z,27.07
2018-05-25T09:57:26.371Z,27.09
2018-05-25T09:58:26.625Z,27.28
2018-05-25T09:59:26.884Z,28.43
2018-05-25T10:00:27.133Z,29.79
2018-05-25T10:01:27.391Z,30.61
2018-05-25T10:02:27.642Z,31.31
2018-05-25T10:03:27.897Z,29.98
2018-05-25T10:04:28.153Z,30.05
2018-05-25T10:05:28.409Z,30.01
2018-05-25T10:06:28.665Z,29.71
2018-05-25T10:07:28.922Z,29.57
2018-05-25T10:08:29.175Z,27.51
2018-05-25T10:09:29.431Z,26.95
2018-05-25T10:10:29.687Z,28.30
2018-05-25T10:11:29.940Z,29.14
2018-05-25T10:12:30.196Z,29.70
2018-05-25T10:13:30.451Z,29.34
2018-05-25T10:14:30.706Z,29.71
2018-05-25T10:15:30.962Z,30.34
2018-05-25T10:16:31.218Z,30.84
2018-05-25T10:17:31.482Z,30.84
2018-05-25T10:18:31.728Z,30.69
2018-05-25T10:19:31.985Z,30.11
2018-05-25T10:20:32.241Z,28.06
2018-05-25T10:21:32.496Z,28.52
2018-05-25T10:22:32.752Z,28.36
2018-05-25T10:23:33.011Z,29.02
2018-05-25T10:24:33.265Z,30.01
2018-05-25T10:25:33.523Z,30.45
2018-05-25T10:26:33.781Z,30.38
2018-05-25T10:27:34.035Z,30.04
2018-05-25T10:28:34.302Z,30.61
2018-05-25T10:29:34.550Z,31.17
2018-05-25T10:30:34.807Z,31.23
2018-05-25T10:31:35.063Z,31.35
2018-05-25T10:32:35.319Z,29.85
2018-05-25T10:33:35.583Z,29.08
2018-05-25T10:34:35.834Z,28.93
2018-05-25T10:35:36.090Z,28.24
2018-05-25T10:36:36.347Z,29.04
2018-05-25T10:37:36.603Z,29.70
2018-05-25T10:38:36.860Z,30.34
2018-05-25T10:39:37.117Z,31.26
2018-05-25T10:40:37.372Z,31.47
2018-05-25T10:41:37.628Z,31.69
2018-05-25T10:42:37.886Z,31.91
2018-05-25T10:43:38.141Z,29.97
2018-05-25T10:44:38.398Z,29.58
2018-05-25T10:45:38.671Z,30.51
2018-05-25T10:46:38.915Z,31.53
2018-05-25T10:47:39.174Z,31.80
2018-05-25T10:48:39.435Z,32.32
2018-05-25T10:49:39.691Z,33.00
2018-05-25T10:50:39.949Z,33.45
2018-05-25T10:51:40.205Z,33.66
2018-05-25T10:52:40.466Z,32.03
2018-05-25T10:53:40.722Z,30.64
2018-05-25T10:54:40.979Z,29.87
2018-05-25T10:55:41.234Z,29.33
2018-05-25T10:56:41.491Z,28.90
2018-05-25T10:57:41.749Z,28.48
2018-05-25T10:58:42.006Z,28.52
2018-05-25T10:59:42.264Z,29.26
2018-05-25T11:00:42.519Z,29.58
2018-05-25T11:01:42.781Z,29.36
2018-05-25T11:02:43.034Z,30.73
2018-05-25T11:03:43.329Z,31.34
2018-05-25T11:04:43.555Z,31.96
2018-05-25T11:05:43.807Z,30.73
2018-05-25T11:06:44.064Z,29.98
2018-05-25T11:07:44.322Z,29.52
2018-05-25T11:08:44.576Z,28.92
2018-05-25T11:09:44.839Z,28.51
2018-05-25T11:10:45.100Z,28.21
2018-05-25T11:11:45.350Z,28.24
2018-05-25T11:12:45.606Z,28.77
2018-05-25T11:13:45.864Z,29.98
2018-05-25T11:14:46.122Z,29.58
2018-05-25T11:15:46.381Z,28.81
2018-05-25T11:16:46.637Z,28.15
2018-05-25T11:17:46.894Z,28.92
2018-05-25T11:18:47.150Z,29.74
2018-05-25T11:19:47.409Z,31.20
2018-05-25T11:20:47.666Z,32.40
2018-05-25T11:21:47.922Z,33.00
2018-05-25T11:22:48.177Z,33.28
2018-05-25T11:23:48.446Z,32.88
2018-05-25T11:24:48.695Z,33.78
2018-05-25T11:25:48.952Z,33.56
2018-05-25T11:26:49.204Z,32.87
2018-05-25T11:27:49.460Z,30.54
2018-05-25T11:28:49.716Z,29.90
2018-05-25T11:29:50.000Z,31.32
2018-05-25T11:30:50.282Z,31.39
2018-05-25T11:31:50.532Z,30.60
2018-05-25T11:32:50.791Z,29.28
2018-05-25T11:33:51.054Z,28.67
2018-05-25T11:34:51.312Z,29.48
2018-05-25T11:35:51.566Z,29.95
2018-05-25T11:36:51.822Z,30.20
2018-05-25T11:37:52.079Z,30.32
2018-05-25T11:38:52.336Z,31.02
2018-05-25T11:39:52.591Z,30.76
2018-05-25T11:40:52.849Z,29.97
2018-05-25T11:41:53.103Z,28.74
2018-05-25T11:42:53.362Z,28.22
2018-05-25T11:43:53.617Z,27.93
2018-05-25T11:44:53.875Z,27.63
2018-05-25T11:45:54.129Z,27.29
2018-05-25T11:46:54.389Z,27.13
2018-05-25T11:47:54.645Z,27.94
2018-05-25T11:48:54.901Z,29.15
2018-05-25T11:49:55.157Z,30.02
2018-05-25T11:50:55.414Z,31.16
2018-05-25T11:51:55.670Z,31.91
2018-05-25T11:52:55.932Z,31.95
2018-05-25T11:53:56.181Z,32.22
2018-05-25T11:54:56.442Z,32.45
2018-05-25T11:55:56.691Z,32.77
2018-05-25T11:56:56.949Z,32.99
2018-05-25T11:57:57.203Z,33.22
2018-05-25T11:58:57.456Z,33.51
2018-05-25T11:59:57.715Z,33.45
2018-05-25T12:00:57.974Z,33.78
2018-05-25T12:01:58.232Z,34.16
2018-05-25T12:02:58.554Z,34.13
2018-05-25T12:03:58.814Z,34.28
2018-05-25T12:04:59.072Z,34.00
2018-05-25T12:05:59.330Z,34.19
2018-05-25T12:06:59.588Z,34.24
2018-05-25T12:07:59.847Z,32.18
2018-05-25T12:09:00.106Z,29.57
2018-05-25T12:10:00.408Z,28.92
2018-05-25T12:11:00.665Z,27.77
2018-05-25T12:12:00.921Z,27.25
2018-05-25T12:13:01.170Z,26.99
2018-05-25T12:14:01.429Z,25.97
2018-05-25T12:15:01.686Z,24.73
2018-05-25T12:16:01.945Z,24.37
2018-05-25T12:17:02.199Z,24.69
2018-05-25T12:18:02.452Z,24.91
2018-05-25T12:19:02.708Z,25.17
2018-05-25T12:20:03.002Z,24.73
2018-05-25T12:21:03.263Z,25.60
2018-05-25T12:22:03.518Z,27.22
2018-05-25T12:23:03.773Z,29.00
2018-05-25T12:24:04.026Z,30.15
2018-05-25T12:25:04.329Z,31.04
2018-05-25T12:26:04.607Z,29.83
2018-05-25T12:27:04.908Z,28.78
2018-05-25T12:28:05.223Z,28.03
2018-05-25T12:29:05.450Z,27.82
2018-05-25T12:30:05.742Z,28.22
2018-05-25T12:31:05.999Z,29.61
2018-05-25T12:32:06.251Z,30.86
2018-05-25T12:33:06.505Z,31.43
2018-05-25T12:34:06.785Z,29.74
2018-05-25T12:35:07.017Z,28.15
2018-05-25T12:36:07.270Z,26.84
2018-05-25T12:37:07.524Z,27.03
2018-05-25T12:38:07.781Z,25.75
2018-05-25T12:39:08.038Z,25.10
2018-05-25T12:40:08.291Z,25.20
2018-05-25T12:41:08.551Z,27.34
2018-05-25T12:42:08.801Z,29.24
2018-05-25T12:43:09.054Z,30.58
2018-05-25T12:44:09.313Z,31.41
2018-05-25T12:45:09.562Z,32.15
2018-05-25T12:46:09.817Z,31.17
2018-05-25T12:47:10.076Z,30.43
2018-05-25T12:48:10.337Z,28.92
2018-05-25T12:49:10.592Z,28.70
2018-05-25T12:50:10.850Z,28.78
2018-05-25T12:51:11.106Z,29.63
2018-05-25T12:52:11.360Z,30.10
2018-05-25T12:53:11.624Z,30.72
2018-05-25T12:54:11.877Z,31.32
2018-05-25T12:55:12.135Z,31.35
2018-05-25T12:56:12.392Z,29.82